Time;durP1;ratioP1;P1;durP2;ratioP2;P2;SDS_P1;SDS_P2;PMS_P1;PMS_P2;Temp;Humidity;BMP_temperature;BMP_pressure;BME280_temperature;BME280_humidity;BME280_pressure;Samples;Min_cycle;Max_cycle;Signal;HPM_P1;HPM_P2
2024/01/18 00:00:36;;;;;;;41.60;37.70;;;;;;;3.16;95.68;95145.86;107143;1260;25344;-79
2024/01/18 00:03:24;;;;;;;28.20;25.30;;;;;;;3.21;96.10;95148.79;107245;1276;24213;-80
2024/01/18 00:05:52;;;;;;;25.70;23.20;;;;;;;3.28;95.78;95138.29;106948;1271;23136;-77
2024/01/18 00:08:20;;;;;;;22.90;20.60;;;;;;;3.33;96.03;95133.24;106978;1268;25253;-77
2024/01/18 00:10:48;;;;;;;21.20;19.10;;;;;;;3.38;95.97;95126.84;107154;1275;22643;-78
2024/01/18 00:13:16;;;;;;;24.10;21.80;;;;;;;3.42;96.28;95129.05;107044;1266;22559;-78
2024/01/18 00:15:44;;;;;;;21.50;19.20;;;;;;;3.44;96.46;95131.91;106951;1275;22547;-78
2024/01/18 00:18:12;;;;;;;24.10;21.80;;;;;;;3.44;96.10;95122.52;106900;1276;23394;-78
2024/01/18 00:20:40;;;;;;;29.80;27.00;;;;;;;3.47;96.42;95122.60;106953;1271;25417;-79
2024/01/18 00:23:08;;;;;;;23.20;21.00;;;;;;;3.51;96.54;95125.97;106849;1264;23863;-79
2024/01/18 00:25:36;;;;;;;26.20;23.80;;;;;;;3.58;96.49;95133.33;106868;1270;24271;-79
2024/01/18 00:28:04;;;;;;;32.70;29.50;;;;;;;3.62;96.57;95132.86;107255;1260;22601;-79
2024/01/18 00:30:32;;;;;;;26.30;23.80;;;;;;;3.62;96.43;95141.76;107257;1256;22553;-78
2024/01/18 00:33:00;;;;;;;26.00;23.60;;;;;;;3.59;96.65;95144.73;106898;1260;22557;-78
2024/01/18 00:35:28;;;;;;;26.60;23.90;;;;;;;3.57;96.50;95140.71;106893;1267;25508;-78
2024/01/18 00:37:56;;;;;;;24.50;22.10;;;;;;;3.51;96.35;95144.44;106961;1268;22537;-80
2024/01/18 00:40:24;;;;;;;28.20;25.30;;;;;;;3.48;96.86;95148.59;106952;1275;23912;-79
2024/01/18 00:42:53;;;;;;;26.70;24.10;;;;;;;3.44;96.19;95156.66;108457;1262;22688;-78
2024/01/18 00:45:21;;;;;;;27.90;25.00;;;;;;;3.41;96.40;95163.16;108733;1275;22537;-78
2024/01/18 00:47:49;;;;;;;27.50;24.80;;;;;;;3.40;96.38;95156.29;107284;1275;22586;-82
2024/01/18 00:50:17;;;;;;;30.20;27.30;;;;;;;3.43;96.64;95154.69;107349;1259;25394;-80
2024/01/18 00:52:45;;;;;;;43.90;39.90;;;;;;;3.43;96.82;95160.64;106944;1275;22676;-80
2024/01/18 00:55:13;;;;;;;40.90;37.40;;;;;;;3.40;96.76;95160.90;106961;1275;24300;-79
2024/01/18 00:57:41;;;;;;;39.80;36.10;;;;;;;3.36;96.72;95167.14;106828;1268;25274;-79
2024/01/18 01:00:10;;;;;;;41.40;37.80;;;;;;;3.34;97.03;95165.99;106964;1265;22778;-79
2024/01/18 01:02:38;;;;;;;38.50;35.10;;;;;;;3.31;97.07;95159.17;107326;1275;25368;-79
2024/01/18 01:05:07;;;;;;;35.30;31.70;;;;;;;3.29;96.91;95161.67;107277;1275;25104;-79
2024/01/18 01:07:35;;;;;;;32.20;28.60;;;;;;;3.32;97.40;95156.48;107245;1273;25400;-80
2024/01/18 01:10:03;;;;;;;31.50;26.70;;;;;;;3.37;97.63;95154.46;106935;1271;25320;-81
2024/01/18 01:12:31;;;;;;;27.90;24.80;;;;;;;3.42;97.61;95149.87;106883;1263;22531;-79
2024/01/18 01:14:59;;;;;;;26.20;23.40;;;;;;;3.42;97.20;95153.22;106873;1275;24276;-78
2024/01/18 01:17:27;;;;;;;342.80;266.10;;;;;;;3.36;97.53;95147.51;106834;1262;24351;-78
2024/01/18 01:19:55;;;;;;;238.70;169.50;;;;;;;3.33;97.50;95140.77;106853;1275;22825;-78
2024/01/18 01:22:23;;;;;;;49.80;44.90;;;;;;;3.32;97.58;95142.55;106950;1273;24216;-78
2024/01/18 01:24:51;;;;;;;32.70;29.00;;;;;;;3.30;97.79;95137.71;106938;1272;22571;-78
2024/01/18 01:27:19;;;;;;;34.30;30.80;;;;;;;3.31;97.45;95136.13;106864;1275;25413;-79
2024/01/18 01:29:47;;;;;;;30.20;27.10;;;;;;;3.34;97.87;95134.36;107043;1275;25545;-79
2024/01/18 01:32:15;;;;;;;27.70;25.10;;;;;;;3.34;97.67;95139.60;106877;1261;22619;-79
2024/01/18 01:34:43;;;;;;;27.90;25.20;;;;;;;3.32;97.84;95139.73;106855;1265;22531;-79
2024/01/18 01:37:12;;;;;;;30.00;27.30;;;;;;;3.27;97.84;95149.14;107182;1275;22540;-79
2024/01/18 01:39:40;;;;;;;37.40;33.80;;;;;;;3.26;97.86;95151.84;107230;1263;25269;-79
2024/01/18 01:42:08;;;;;;;28.20;25.50;;;;;;;3.26;97.82;95153.19;107211;1270;22530;-79
2024/01/18 01:44:36;;;;;;;24.90;22.20;;;;;;;3.25;97.80;95155.81;107215;1266;22576;-80
2024/01/18 01:47:04;;;;;;;22.20;19.90;;;;;;;3.27;98.01;95152.16;107183;1260;25356;-80
2024/01/18 01:49:32;;;;;;;20.90;18.80;;;;;;;3.30;97.96;95148.79;107168;1268;23484;-77
2024/01/18 01:52:01;;;;;;;23.30;21.10;;;;;;;3.29;97.95;95147.85;106785;1265;25429;-77
2024/01/18 01:54:29;;;;;;;42.20;38.40;;;;;;;3.22;98.49;95140.71;107156;1259;24263;-77
2024/01/18 01:57:03;;;;;;;30.60;27.50;;;;;;;3.17;98.39;95131.18;107160;1268;22649;-77
2024/01/18 01:59:32;;;;;;;23.90;21.60;;;;;;;3.16;98.63;95138.04;107242;1260;24279;-77
2024/01/18 02:02:00;;;;;;;17.50;15.70;;;;;;;3.21;99.15;95135.42;107096;1276;22590;-77
2024/01/18 02:04:30;;;;;;;19.30;17.30;;;;;;;3.32;99.46;95138.55;107233;1262;25658;-77
2024/01/18 02:06:58;;;;;;;17.60;15.80;;;;;;;3.42;99.37;95133.61;107314;1271;25553;-77
2024/01/18 02:09:26;;;;;;;16.40;14.80;;;;;;;3.53;99.60;95124.14;107263;1261;22551;-77
2024/01/18 02:11:54;;;;;;;16.40;14.80;;;;;;;3.62;99.43;95120.92;107325;1275;23734;-77
2024/01/18 02:14:23;;;;;;;15.90;14.40;;;;;;;3.69;99.49;95117.91;107339;1275;22565;-77
2024/01/18 02:16:51;;;;;;;17.00;15.40;;;;;;;3.75;99.76;95111.98;107279;1264;24046;-76
2024/01/18 02:19:19;;;;;;;16.90;15.30;;;;;;;3.82;99.89;95105.70;107167;1262;22615;-76
2024/01/18 02:21:47;;;;;;;24.40;22.10;;;;;;;3.89;99.88;95108.54;107192;1270;24213;-76
2024/01/18 02:24:31;;;;;;;18.50;16.80;;;;;;;3.97;99.95;95109.58;106855;1276;24296;-76
2024/01/18 02:26:59;;;;;;;14.70;13.20;;;;;;;4.05;100.00;95107.92;106849;1275;25415;-76
2024/01/18 02:29:27;;;;;;;13.50;12.20;;;;;;;4.12;99.97;95109.77;106804;1272;24269;-76
2024/01/18 02:31:56;;;;;;;21.00;19.20;;;;;;;4.19;100.00;95112.69;106807;1261;23376;-76
2024/01/18 02:34:25;;;;;;;22.90;21.00;;;;;;;4.23;100.00;95116.41;107207;1273;22545;-76
2024/01/18 02:36:53;;;;;;;18.30;16.50;;;;;;;4.25;100.00;95110.70;107191;1269;23011;-76
2024/01/18 02:39:22;;;;;;;21.50;19.60;;;;;;;4.23;100.00;95109.43;107247;1255;22546;-76
2024/01/18 02:41:50;;;;;;;19.40;17.70;;;;;;;4.23;100.00;95106.20;106837;1267;25517;-78
2024/01/18 02:44:18;;;;;;;14.70;13.20;;;;;;;4.25;100.00;95105.67;107069;1259;22963;-77
2024/01/18 02:46:47;;;;;;;13.80;12.60;;;;;;;4.31;100.00;95099.33;107258;1268;22583;-76
2024/01/18 02:49:14;;;;;;;13.00;11.70;;;;;;;4.38;100.00;95099.80;106876;1272;22629;-76
2024/01/18 02:51:43;;;;;;;12.60;11.30;;;;;;;4.43;100.00;95103.42;107388;1268;24458;-78
2024/01/18 02:54:11;;;;;;;9.80;8.90;;;;;;;4.47;100.00;95105.15;107308;1273;22552;-78
2024/01/18 02:56:39;;;;;;;13.10;11.90;;;;;;;4.56;100.00;95095.87;107234;1258;24269;-78
2024/01/18 02:59:08;;;;;;;14.70;13.40;;;;;;;4.63;100.00;95105.84;107184;1268;22548;-76
2024/01/18 03:01:36;;;;;;;11.50;10.40;;;;;;;4.66;100.00;95107.95;106882;1270;24275;-77
2024/01/18 03:04:04;;;;;;;9.50;8.50;;;;;;;4.68;100.00;95102.98;108107;1265;22554;-76
2024/01/18 03:06:32;;;;;;;11.40;10.40;;;;;;;4.71;100.00;95097.98;107472;1275;23288;-75
2024/01/18 03:09:00;;;;;;;13.20;12.00;;;;;;;4.78;100.00;95094.79;107317;1275;24536;-75
2024/01/18 03:11:28;;;;;;;10.90;9.90;;;;;;;4.84;100.00;95098.02;106954;1275;24382;-75
2024/01/18 03:13:57;;;;;;;10.20;9.30;;;;;;;4.92;100.00;95099.66;106924;1269;25256;-76
2024/01/18 03:16:25;;;;;;;8.80;7.50;;;;;;;4.96;100.00;95095.17;107051;1275;24039;-77
2024/01/18 03:18:53;;;;;;;9.40;8.30;;;;;;;5.01;100.00;95091.37;107233;1275;22553;-76
2024/01/18 03:21:21;;;;;;;9.50;8.40;;;;;;;5.09;100.00;95090.78;107228;1262;25493;-76
2024/01/18 03:23:49;;;;;;;6.70;6.00;;;;;;;5.14;100.00;95097.49;106864;1275;22597;-75
2024/01/18 03:26:17;;;;;;;7.00;6.30;;;;;;;5.27;100.00;95101.65;107045;1260;24206;-77
2024/01/18 03:28:45;;;;;;;10.20;9.30;;;;;;;5.36;100.00;95097.20;106931;1267;22794;-76
2024/01/18 03:31:13;;;;;;;10.50;9.60;;;;;;;5.38;100.00;95099.84;106962;1262;22620;-76
2024/01/18 03:33:41;;;;;;;12.10;11.00;;;;;;;5.35;100.00;95097.33;107185;1269;24062;-76
2024/01/18 03:36:10;;;;;;;6.30;5.70;;;;;;;5.36;100.00;95098.11;107154;1273;23425;-75
2024/01/18 03:38:38;;;;;;;6.20;5.40;;;;;;;5.44;100.00;95099.05;106830;1265;22570;-76
2024/01/18 03:41:06;;;;;;;6.10;5.40;;;;;;;5.55;100.00;95103.05;107159;1273;25353;-74
2024/01/18 03:43:34;;;;;;;6.30;5.70;;;;;;;5.61;100.00;95101.49;106878;1271;23361;-76
2024/01/18 03:46:02;;;;;;;5.60;5.10;;;;;;;5.63;100.00;95100.27;107005;1271;22533;-75
2024/01/18 03:48:30;;;;;;;5.70;5.20;;;;;;;5.66;100.00;95102.34;107036;1271;25610;-75
2024/01/18 03:50:58;;;;;;;6.20;5.30;;;;;;;5.69;100.00;95108.08;107461;1268;22550;-75
2024/01/18 03:53:26;;;;;;;5.70;5.10;;;;;;;5.72;100.00;95106.02;106839;1276;22718;-76
2024/01/18 03:55:54;;;;;;;8.80;8.00;;;;;;;5.72;100.00;95108.99;106870;1275;22766;-75
2024/01/18 03:58:22;;;;;;;6.50;5.80;;;;;;;5.70;100.00;95115.37;106787;1276;24279;-76
2024/01/18 04:00:51;;;;;;;6.90;6.20;;;;;;;5.69;100.00;95115.17;106860;1264;23890;-75
2024/01/18 04:03:20;;;;;;;6.90;5.90;;;;;;;5.71;100.00;95117.77;106888;1266;25315;-74
2024/01/18 04:05:48;;;;;;;6.10;5.50;;;;;;;5.70;100.00;95116.52;106872;1266;24269;-75
2024/01/18 04:08:16;;;;;;;7.20;5.90;;;;;;;5.68;100.00;95121.48;106909;1259;22544;-75
2024/01/18 04:10:44;;;;;;;6.80;5.80;;;;;;;5.68;100.00;95128.84;106864;1275;22542;-75
2024/01/18 04:13:12;;;;;;;7.30;6.40;;;;;;;5.72;100.00;95135.33;106896;1272;22580;-77
2024/01/18 04:15:42;;;;;;;8.40;7.40;;;;;;;5.75;100.00;95128.65;106943;1269;22532;-73
2024/01/18 04:18:11;;;;;;;8.90;8.00;;;;;;;5.79;100.00;95127.02;106893;1272;25310;-76
2024/01/18 04:20:39;;;;;;;11.50;9.50;;;;;;;5.84;100.00;95129.69;106868;1261;22546;-75
2024/01/18 04:23:07;;;;;;;10.90;9.80;;;;;;;5.84;100.00;95126.61;106909;1256;22534;-74
2024/01/18 04:25:34;;;;;;;11.30;9.30;;;;;;;5.82;100.00;95128.78;106884;1273;25356;-74
2024/01/18 04:28:03;;;;;;;10.90;9.10;;;;;;;5.80;100.00;95127.52;106829;1265;24220;-74
2024/01/18 04:30:31;;;;;;;12.60;10.40;;;;;;;5.80;100.00;95129.95;106890;1264;25169;-75
2024/01/18 04:32:59;;;;;;;11.00;9.90;;;;;;;5.82;100.00;95133.49;107216;1271;22572;-75
2024/01/18 04:35:27;;;;;;;13.10;11.80;;;;;;;5.80;100.00;95131.25;106883;1261;22568;-75
2024/01/18 04:37:55;;;;;;;14.30;12.80;;;;;;;5.78;100.00;95129.11;107253;1269;24229;-77
2024/01/18 04:40:23;;;;;;;16.20;14.60;;;;;;;5.74;100.00;95126.55;107199;1276;25429;-76
2024/01/18 04:42:51;;;;;;;19.60;17.10;;;;;;;5.68;100.00;95133.33;106883;1262;25499;-76
2024/01/18 04:45:19;;;;;;;17.40;15.60;;;;;;;5.63;100.00;95138.74;107194;1262;22578;-75
2024/01/18 04:47:51;;;;;;;17.20;15.60;;;;;;;5.60;100.00;95139.09;106815;1261;22614;-75
2024/01/18 04:50:26;;;;;;;15.80;14.20;;;;;;;5.60;100.00;95146.88;106915;1273;25324;-75
2024/01/18 04:52:54;;;;;;;17.70;15.60;;;;;;;5.58;100.00;95145.05;106866;1265;22710;-76
2024/01/18 04:55:25;;;;;;;20.40;18.60;;;;;;;5.54;100.00;95141.63;106984;1268;25475;-76
2024/01/18 04:57:53;;;;;;;19.20;16.80;;;;;;;5.48;100.00;95139.68;107180;1273;22649;-76
2024/01/18 05:00:21;;;;;;;19.60;17.70;;;;;;;5.44;100.00;95142.64;107231;1265;25360;-74
2024/01/18 05:02:49;;;;;;;17.30;14.00;;;;;;;5.43;100.00;95150.52;106915;1275;22559;-75
2024/01/18 05:05:19;;;;;;;17.90;15.80;;;;;;;5.42;100.00;95157.30;106899;1270;22534;-75
2024/01/18 05:07:49;;;;;;;16.80;15.30;;;;;;;5.40;100.00;95164.34;106955;1263;23922;-75
2024/01/18 05:10:17;;;;;;;17.40;15.80;;;;;;;5.38;100.00;95165.95;106992;1273;24822;-76
2024/01/18 05:12:46;;;;;;;20.00;18.30;;;;;;;5.36;100.00;95164.11;106939;1275;22538;-75
2024/01/18 05:15:14;;;;;;;21.20;19.10;;;;;;;5.33;100.00;95161.41;106858;1275;22546;-75
2024/01/18 05:17:43;;;;;;;20.10;18.00;;;;;;;5.28;100.00;95158.26;106872;1262;22943;-75
2024/01/18 05:20:12;;;;;;;23.60;21.00;;;;;;;5.22;100.00;95158.86;106879;1268;25422;-75
2024/01/18 05:22:40;;;;;;;15.20;13.60;;;;;;;5.22;100.00;95167.08;106931;1265;25422;-76
2024/01/18 05:25:08;;;;;;;15.10;13.20;;;;;;;5.09;100.00;95171.00;107639;1270;22565;-75
2024/01/18 05:27:36;;;;;;;20.40;18.30;;;;;;;4.98;100.00;95174.91;107530;1275;25381;-75
2024/01/18 05:30:05;;;;;;;22.90;20.80;;;;;;;4.91;100.00;95172.62;106982;1275;22546;-76
2024/01/18 05:32:33;;;;;;;24.70;22.10;;;;;;;4.86;100.00;95172.27;106879;1253;24369;-75
2024/01/18 05:35:01;;;;;;;24.20;21.80;;;;;;;4.81;100.00;95181.34;107135;1270;22716;-75
2024/01/18 05:37:29;;;;;;;20.60;18.50;;;;;;;4.74;100.00;95181.17;106806;1275;22540;-75
2024/01/18 05:39:57;;;;;;;24.10;21.80;;;;;;;4.69;100.00;95182.83;106901;1266;22547;-79
2024/01/18 05:42:27;;;;;;;19.60;17.80;;;;;;;4.60;100.00;95187.07;107229;1275;24249;-77
2024/01/18 05:44:55;;;;;;;24.60;22.30;;;;;;;4.48;100.00;95188.92;106812;1273;22554;-76
2024/01/18 05:47:23;;;;;;;26.50;24.20;;;;;;;4.46;100.00;95194.23;106802;1273;22554;-77
2024/01/18 05:49:51;;;;;;;88.00;79.80;;;;;;;4.34;100.00;95191.98;107137;1267;22537;-76
2024/01/18 05:52:19;;;;;;;70.70;65.10;;;;;;;4.30;100.00;95192.52;107174;1273;23889;-76
2024/01/18 05:54:47;;;;;;;32.40;29.50;;;;;;;4.26;100.00;95191.38;107237;1261;22539;-77
2024/01/18 05:57:16;;;;;;;28.20;25.40;;;;;;;4.21;100.00;95189.30;106889;1262;22542;-77
2024/01/18 05:59:44;;;;;;;30.00;26.90;;;;;;;4.19;100.00;95190.20;107275;1275;22564;-76
2024/01/18 06:02:12;;;;;;;26.70;24.00;;;;;;;4.23;100.00;95188.38;106950;1269;22540;-75
2024/01/18 06:04:40;;;;;;;20.00;18.10;;;;;;;4.23;100.00;95190.42;106953;1269;22650;-76
2024/01/18 06:07:09;;;;;;;51.40;47.20;;;;;;;4.32;100.00;95191.67;107153;1275;23327;-76
2024/01/18 06:09:37;;;;;;;29.60;27.00;;;;;;;4.39;100.00;95193.60;106947;1274;22533;-76
2024/01/18 06:12:06;;;;;;;25.30;23.00;;;;;;;4.44;100.00;95199.13;107007;1269;24258;-76
2024/01/18 06:14:34;;;;;;;19.30;17.00;;;;;;;4.47;100.00;95199.48;107084;1271;24267;-75
2024/01/18 06:17:02;;;;;;;21.40;19.40;;;;;;;4.51;100.00;95202.14;106934;1268;22602;-77
2024/01/18 06:19:30;;;;;;;25.00;22.80;;;;;;;4.48;100.00;95210.54;107030;1275;23005;-76
2024/01/18 06:21:59;;;;;;;23.50;21.30;;;;;;;4.36;100.00;95211.09;107127;1269;22541;-75
2024/01/18 06:24:28;;;;;;;22.50;20.50;;;;;;;4.27;100.00;95207.73;106808;1276;22537;-76
2024/01/18 06:26:57;;;;;;;33.60;30.70;;;;;;;4.25;100.00;95215.70;106906;1271;25340;-76
2024/01/18 06:29:29;;;;;;;26.90;24.50;;;;;;;4.22;100.00;95213.25;107087;1255;24047;-76
2024/01/18 06:31:57;;;;;;;30.30;27.50;;;;;;;4.28;100.00;95218.20;107164;1271;25283;-77
2024/01/18 06:34:27;;;;;;;25.70;23.30;;;;;;;4.30;100.00;95225.84;107181;1273;25301;-76
2024/01/18 06:36:55;;;;;;;24.60;19.40;;;;;;;4.30;100.00;95223.29;107257;1254;22513;-76
2024/01/18 06:39:23;;;;;;;30.10;27.50;;;;;;;4.38;100.00;95226.20;107149;1275;22547;-76
2024/01/18 06:41:51;;;;;;;23.00;20.90;;;;;;;4.38;100.00;95230.11;107372;1271;26617;-76
2024/01/18 06:44:19;;;;;;;28.20;25.60;;;;;;;4.41;100.00;95236.09;107164;1268;24273;-76
2024/01/18 06:46:47;;;;;;;23.10;21.10;;;;;;;4.30;100.00;95237.38;107157;1272;25359;-79
2024/01/18 06:49:15;;;;;;;24.90;22.70;;;;;;;4.14;100.00;95246.44;107190;1275;23879;-77
2024/01/18 06:51:43;;;;;;;23.70;21.70;;;;;;;4.06;100.00;95238.45;107210;1275;22675;-76
2024/01/18 06:54:11;;;;;;;28.80;26.20;;;;;;;4.16;100.00;95236.68;107244;1265;24217;-76
2024/01/18 06:56:39;;;;;;;22.30;20.20;;;;;;;4.18;100.00;95245.55;107231;1275;23341;-76
2024/01/18 06:59:07;;;;;;;21.60;19.50;;;;;;;4.17;100.00;95243.04;106954;1268;24239;-76
2024/01/18 07:01:35;;;;;;;22.50;20.50;;;;;;;4.21;100.00;95246.88;106821;1262;24385;-76
2024/01/18 07:04:03;;;;;;;22.70;20.50;;;;;;;4.29;100.00;95248.60;106890;1265;23924;-77
2024/01/18 07:06:31;;;;;;;23.10;20.90;;;;;;;4.37;100.00;95251.80;107278;1253;23189;-76
2024/01/18 07:09:00;;;;;;;24.50;22.40;;;;;;;4.41;100.00;95248.30;106828;1276;25430;-75
2024/01/18 07:11:28;;;;;;;26.20;23.60;;;;;;;4.45;100.00;95247.32;106876;1272;25454;-75
2024/01/18 07:13:56;;;;;;;26.60;24.30;;;;;;;4.50;100.00;95252.15;106784;1275;24330;-76
2024/01/18 07:16:25;;;;;;;21.20;19.40;;;;;;;4.53;100.00;95255.01;107117;1269;22563;-75
2024/01/18 07:18:53;;;;;;;22.40;20.40;;;;;;;4.57;100.00;95253.92;107225;1273;22541;-75
2024/01/18 07:21:21;;;;;;;24.20;22.00;;;;;;;4.60;100.00;95251.08;106901;1273;23890;-76
2024/01/18 07:23:49;;;;;;;21.40;19.30;;;;;;;4.60;100.00;95253.96;107154;1275;24369;-76
2024/01/18 07:26:18;;;;;;;22.00;20.10;;;;;;;4.61;100.00;95261.01;106857;1273;22763;-75
2024/01/18 07:28:46;;;;;;;26.60;24.20;;;;;;;4.63;100.00;95265.36;106884;1268;24067;-76
2024/01/18 07:31:14;;;;;;;27.70;25.20;;;;;;;4.65;100.00;95268.41;107123;1266;22620;-76
2024/01/18 07:33:42;;;;;;;27.10;24.60;;;;;;;4.66;100.00;95271.70;107198;1273;23259;-77
2024/01/18 07:36:11;;;;;;;27.80;25.20;;;;;;;4.66;100.00;95273.29;106948;1268;25430;-76
2024/01/18 07:38:39;;;;;;;29.40;26.70;;;;;;;4.63;100.00;95273.64;106817;1276;22965;-76
2024/01/18 07:41:07;;;;;;;29.30;26.50;;;;;;;4.60;100.00;95273.55;107167;1269;22591;-75
2024/01/18 07:43:35;;;;;;;27.20;24.60;;;;;;;4.60;100.00;95277.20;107155;1275;24359;-76
2024/01/18 07:46:03;;;;;;;27.00;24.40;;;;;;;4.60;100.00;95279.56;107140;1269;24270;-75
2024/01/18 07:48:32;;;;;;;28.60;25.90;;;;;;;4.62;100.00;95285.17;107079;1275;25438;-75
2024/01/18 07:51:00;;;;;;;31.00;28.20;;;;;;;4.61;100.00;95284.39;107005;1276;23903;-76
2024/01/18 07:53:28;;;;;;;31.20;28.40;;;;;;;4.60;100.00;95291.48;106880;1266;24398;-76
2024/01/18 07:55:56;;;;;;;30.20;27.30;;;;;;;4.56;100.00;95295.10;107108;1266;22779;-76
2024/01/18 07:58:24;;;;;;;29.50;26.90;;;;;;;4.50;100.00;95302.19;107088;1265;22541;-75
2024/01/18 08:00:53;;;;;;;28.60;26.10;;;;;;;4.49;100.00;95303.39;106890;1270;25227;-77
2024/01/18 08:03:21;;;;;;;28.60;25.90;;;;;;;4.48;100.00;95303.65;107133;1275;22541;-77
2024/01/18 08:05:49;;;;;;;27.60;24.90;;;;;;;4.44;100.00;95306.34;107247;1267;22642;-78
2024/01/18 08:08:17;;;;;;;29.70;26.80;;;;;;;4.44;100.00;95307.90;107223;1265;25292;-76
2024/01/18 08:10:45;;;;;;;27.20;24.70;;;;;;;4.42;100.00;95308.14;107371;1254;23475;-77
2024/01/18 08:13:13;;;;;;;27.40;25.00;;;;;;;4.42;100.00;95316.91;107352;1270;22756;-76
2024/01/18 08:15:41;;;;;;;28.50;25.90;;;;;;;4.43;100.00;95323.56;106927;1272;22660;-76
2024/01/18 08:18:09;;;;;;;29.30;26.60;;;;;;;4.42;100.00;95325.80;107013;1275;24379;-77
2024/01/18 08:20:37;;;;;;;27.20;24.40;;;;;;;4.41;100.00;95323.95;107142;1262;23929;-76
2024/01/18 08:23:05;;;;;;;30.20;27.40;;;;;;;4.40;100.00;95329.54;107211;1253;22678;-78
2024/01/18 08:25:33;;;;;;;26.20;23.80;;;;;;;4.38;100.00;95333.52;107592;1267;22593;-76
2024/01/18 08:28:01;;;;;;;28.30;25.60;;;;;;;4.36;100.00;95333.72;107207;1276;22543;-76
2024/01/18 08:30:29;;;;;;;30.10;27.30;;;;;;;4.36;100.00;95340.50;107138;1276;22808;-76
2024/01/18 08:32:57;;;;;;;28.50;26.00;;;;;;;4.36;100.00;95344.39;107141;1276;22545;-76
2024/01/18 08:35:25;;;;;;;27.70;25.10;;;;;;;4.37;100.00;95355.55;106904;1276;25326;-77
2024/01/18 08:37:53;;;;;;;28.10;25.60;;;;;;;4.37;100.00;95354.23;107301;1271;22761;-77
2024/01/18 08:40:21;;;;;;;28.60;26.10;;;;;;;4.36;100.00;95347.27;107280;1274;24274;-77
2024/01/18 08:42:49;;;;;;;28.00;25.20;;;;;;;4.36;100.00;95351.23;107307;1275;22675;-76
2024/01/18 08:45:18;;;;;;;25.10;22.50;;;;;;;4.36;100.00;95349.40;107005;1275;24185;-76
2024/01/18 08:47:47;;;;;;;24.60;22.20;;;;;;;4.37;100.00;95356.15;106857;1269;25321;-76
2024/01/18 08:50:15;;;;;;;28.90;26.10;;;;;;;4.34;100.00;95356.56;106887;1275;23132;-75
2024/01/18 08:52:43;;;;;;;29.60;27.10;;;;;;;4.35;100.00;95365.59;106926;1267;22819;-76
2024/01/18 08:55:11;;;;;;;29.20;26.60;;;;;;;4.37;100.00;95372.91;107376;1271;22594;-77
2024/01/18 08:57:39;;;;;;;31.00;28.00;;;;;;;4.37;100.00;95378.38;107327;1268;22783;-76
2024/01/18 09:00:08;;;;;;;28.80;26.20;;;;;;;4.33;100.00;95382.38;107004;1272;22527;-77
2024/01/18 09:02:36;;;;;;;29.50;27.00;;;;;;;4.38;100.00;95391.14;107369;1271;22630;-77
2024/01/18 09:05:06;;;;;;;29.00;26.30;;;;;;;4.36;100.00;95394.04;107239;1269;22571;-77
2024/01/18 09:07:34;;;;;;;27.10;24.40;;;;;;;4.28;100.00;95397.17;107236;1268;25560;-77
2024/01/18 09:10:04;;;;;;;25.80;23.40;;;;;;;4.23;100.00;95400.61;107189;1265;23322;-77
2024/01/18 09:12:32;;;;;;;26.90;24.50;;;;;;;4.21;100.00;95401.69;107168;1274;22540;-77
2024/01/18 09:15:00;;;;;;;25.30;23.00;;;;;;;4.23;100.00;95407.04;107158;1274;22649;-76
2024/01/18 09:17:28;;;;;;;24.30;22.00;;;;;;;4.23;100.00;95407.38;107271;1274;22501;-76
2024/01/18 09:19:56;;;;;;;28.60;25.90;;;;;;;4.18;100.00;95415.55;106919;1275;24131;-75
2024/01/18 09:22:24;;;;;;;28.00;25.40;;;;;;;4.13;100.00;95411.70;107321;1269;22570;-76
2024/01/18 09:24:52;;;;;;;27.50;24.90;;;;;;;4.13;100.00;95418.38;107248;1268;25257;-77
2024/01/18 09:27:24;;;;;;;30.90;28.00;;;;;;;4.10;100.00;95424.02;107255;1260;22703;-75
2024/01/18 09:29:52;;;;;;;29.30;26.40;;;;;;;4.06;100.00;95429.71;106806;1269;22603;-76
2024/01/18 09:32:20;;;;;;;33.90;30.80;;;;;;;4.04;100.00;95428.34;106893;1269;25508;-77
2024/01/18 09:34:48;;;;;;;34.30;31.20;;;;;;;3.98;100.00;95426.91;106981;1269;22567;-78
2024/01/18 09:37:17;;;;;;;34.20;31.10;;;;;;;3.88;100.00;95423.92;107306;1269;25496;-77
2024/01/18 09:39:45;;;;;;;35.10;32.00;;;;;;;3.81;100.00;95429.56;107220;1274;24239;-77
2024/01/18 09:42:17;;;;;;;35.10;32.00;;;;;;;3.78;100.00;95431.42;107223;1274;22656;-77
2024/01/18 09:44:47;;;;;;;38.20;34.90;;;;;;;3.75;100.00;95431.94;107250;1269;24219;-77
2024/01/18 09:47:15;;;;;;;41.30;37.60;;;;;;;3.71;100.00;95435.38;106861;1269;22541;-76
2024/01/18 09:49:46;;;;;;;38.70;35.40;;;;;;;3.66;100.00;95433.54;106915;1260;24673;-78
2024/01/18 09:52:14;;;;;;;36.80;33.50;;;;;;;3.61;100.00;95434.95;107412;1269;22554;-78
2024/01/18 09:54:42;;;;;;;37.70;34.30;;;;;;;3.57;100.00;95435.77;107213;1275;184341;-78
2024/01/18 09:57:15;;;;;;;36.60;33.30;;;;;;;3.52;100.00;95440.17;107428;1273;22692;-78
2024/01/18 09:59:44;;;;;;;38.20;34.90;;;;;;;3.51;100.00;95438.83;107337;1275;25433;-77
2024/01/18 10:02:12;;;;;;;39.10;35.60;;;;;;;3.45;100.00;95443.96;107350;1270;22572;-77
2024/01/18 10:04:41;;;;;;;42.50;38.60;;;;;;;3.36;100.00;95444.80;107375;1275;22707;-78
2024/01/18 10:07:09;;;;;;;41.50;37.60;;;;;;;3.36;100.00;95443.12;108300;1269;24433;-76
2024/01/18 10:09:37;;;;;;;40.70;36.60;;;;;;;3.34;100.00;95444.39;108352;1275;25319;-78
2024/01/18 10:12:06;;;;;;;36.30;32.70;;;;;;;3.31;100.00;95443.57;107695;1265;22574;-78
2024/01/18 10:14:42;;;;;;;37.30;30.80;;;;;;;3.31;100.00;95447.42;107287;1275;22540;-78
2024/01/18 10:17:23;;;;;;;36.50;32.70;;;;;;;3.27;100.00;95441.11;107154;1259;24775;-78
2024/01/18 10:19:55;;;;;;;35.50;31.10;;;;;;;3.22;100.00;95439.98;107299;1263;22560;-78
2024/01/18 10:22:24;;;;;;;38.50;28.00;;;;;;;3.15;100.00;95443.35;107461;1260;22572;-78
2024/01/18 10:24:53;;;;;;;38.50;29.00;;;;;;;3.13;100.00;95441.61;107309;1276;25255;-79
2024/01/18 10:27:22;;;;;;;37.10;29.90;;;;;;;3.13;100.00;95442.15;107467;1270;22525;-76
2024/01/18 10:29:52;;;;;;;41.00;29.80;;;;;;;3.11;100.00;95447.41;107106;1275;23937;-76
2024/01/18 10:32:20;;;;;;;36.40;27.80;;;;;;;3.09;100.00;95451.68;107354;1275;25612;-78
2024/01/18 10:34:49;;;;;;;37.00;26.80;;;;;;;3.08;100.00;95456.28;107317;1276;26722;-77
2024/01/18 10:37:17;;;;;;;41.40;28.40;;;;;;;3.09;100.00;95456.09;107391;1276;24217;-80
2024/01/18 10:39:47;;;;;;;40.50;29.30;;;;;;;3.07;100.00;95463.77;107341;1254;23361;-76
2024/01/18 10:42:17;;;;;;;35.90;32.60;;;;;;;3.07;100.00;95465.67;106851;1263;24250;-77
2024/01/18 10:44:50;;;;;;;36.90;33.40;;;;;;;3.04;100.00;95468.48;107243;1275;22548;-79
2024/01/18 10:47:18;;;;;;;46.00;41.70;;;;;;;3.02;100.00;95475.56;107415;1275;22719;-77
2024/01/18 10:49:46;;;;;;;44.10;40.00;;;;;;;3.00;100.00;95478.59;107457;1275;24260;-78
2024/01/18 10:52:17;;;;;;;46.90;42.60;;;;;;;2.99;100.00;95476.77;107273;1272;25364;-77
2024/01/18 10:54:47;;;;;;;42.20;38.10;;;;;;;2.97;100.00;95474.95;106965;1275;22548;-76
2024/01/18 10:57:24;;;;;;;33.40;30.30;;;;;;;2.95;100.00;95473.18;107263;1276;22554;-80
2024/01/18 10:59:52;;;;;;;29.80;26.80;;;;;;;2.83;100.00;95478.79;107446;1275;22546;-77
2024/01/18 11:02:21;;;;;;;23.40;21.30;;;;;;;2.74;100.00;95477.72;107364;1272;22537;-77
2024/01/18 11:04:51;;;;;;;23.40;21.20;;;;;;;2.71;100.00;95476.86;107222;1269;22654;-77
2024/01/18 11:07:23;;;;;;;25.20;22.50;;;;;;;2.69;100.00;95472.83;107257;1258;25363;-78
2024/01/18 11:09:53;;;;;;;22.30;20.20;;;;;;;2.64;100.00;95475.46;107291;1275;25329;-78
2024/01/18 11:12:22;;;;;;;23.90;21.80;;;;;;;2.60;100.00;95476.00;106862;1269;22584;-78
2024/01/18 11:14:51;;;;;;;23.30;21.10;;;;;;;2.60;100.00;95468.81;107222;1265;22639;-78
2024/01/18 11:17:21;;;;;;;24.90;22.50;;;;;;;2.61;100.00;95463.50;107233;1275;22541;-77